Manteo, NC

2:20 AM EDT on September 23, 2017 (GMT -0400)
Dare County Regional

Weather History for KMQI - October, 2013

Change the Weather History Date:

Tuesday, October 8, 2013

  Actual Average Record
Temperature  
Mean Temperature 67 °F -  
Max Temperature 72 °F 71 °F 84 °F (1990)
Min Temperature 62 °F 59 °F 44 °F (1966)
Cooling Degree Days 2    
Growing Degree Days 17 (Base 50)    
Moisture  
Dew Point 61 °F    
Average Humidity 88    
Maximum Humidity 98    
Minimum Humidity 76    
Precipitation  
Precipitation 0.00 in - - ()
Sea Level Pressure  
Sea Level Pressure 30.07 in    
Wind  
Wind Speed 17 mph (NE)    
Max Wind Speed 24 mph    
Max Gust Speed 33 mph    
Visibility 9 miles    
Events Rain    
Averages and records for this station are not official NWS values.
T = Trace of Precipitation, MM = Missing Value Source: NWS Daily Summary

Daily Weather History Graph

Daily Weather History Graph

Search for Another Location

Airport or City:

Trip Planner

Search our weather history database for the weather conditions in past years. The results will help you decide how hot, cold, wet, or windy it might be!

Date:

Astronomy

Oct. 08, 2013 Rise Set
Actual Time 7:03 AM EDT 6:36 PM EDT
Civil Twilight 6:38 AM EDT 7:01 PM EDT
Nautical Twilight 6:08 AM EDT 7:31 PM EDT
Astronomical Twilight 5:38 AM EDT 8:01 PM EDT
Moon 10:48 AM EDT (10/8) 9:17 PM EDT (10/8)
Length of Visible Light 12h 23m
Length of Day
11h 32m
Waxing Crescent, 16% of the Moon is Illuminated
Oct 8
Waxing Crescent
Oct 11
First Quarter
Oct 18
Full
Oct 26
Last Quarter
Nov 3
New

Hourly Weather History & Observations

Time (EDT) Temp. Dew Point Humidity Pressure Visibility Wind Dir Wind Speed Gust Speed Precip Events Conditions
12:15 AM 72.0 °F 70.5 °F 95% 29.95 in 10.0 mi NNE 8.1 mph - N/A   Overcast
12:35 AM 72.0 °F 69.4 °F 92% 29.95 in 10.0 mi NNE 10.4 mph - N/A   Overcast
12:55 AM 71.1 °F 69.8 °F 96% 29.96 in 5.0 mi NNE 10.4 mph 17.3 mph N/A Rain Rain
1:15 AM 70.0 °F 69.1 °F 97% 29.97 in 5.0 mi NNE 9.2 mph 12.7 mph N/A Rain Light Rain
1:35 AM 69.6 °F 68.9 °F 98% 29.98 in 5.0 mi NNE 19.6 mph 27.6 mph N/A Rain Heavy Rain
1:55 AM 67.6 °F 67.1 °F 98% 29.99 in 7.0 mi NE 15.0 mph - N/A Rain Light Rain
2:15 AM 67.1 °F 66.4 °F 98% 29.99 in 7.0 mi NE 20.7 mph 26.5 mph N/A Rain Light Rain
2:35 AM 66.6 °F 65.7 °F 97% 30.00 in 10.0 mi NNE 18.4 mph 27.6 mph N/A   Overcast
2:55 AM 66.0 °F 64.9 °F 96% 30.00 in 10.0 mi NNE 21.9 mph 27.6 mph N/A   Overcast
3:15 AM 65.3 °F 64.4 °F 97% 29.99 in 10.0 mi NNE 17.3 mph 26.5 mph N/A   Overcast
3:35 AM 65.7 °F 64.4 °F 96% 29.98 in 10.0 mi NE 18.4 mph 26.5 mph N/A   Overcast
3:55 AM 65.5 °F 64.0 °F 95% 29.99 in 10.0 mi NE 17.3 mph 28.8 mph N/A   Light Drizzle
4:15 AM 64.8 °F 63.3 °F 95% 30.00 in 7.0 mi NE 19.6 mph 28.8 mph N/A Rain Light Rain
4:35 AM 63.9 °F 61.9 °F 93% 30.01 in 10.0 mi NNE 24.2 mph 31.1 mph N/A Rain Rain
4:55 AM 63.9 °F 62.1 °F 94% 30.02 in 10.0 mi NE 19.6 mph 26.5 mph N/A Rain Light Rain
5:15 AM 63.7 °F 62.2 °F 95% 30.03 in 10.0 mi NE 20.7 mph 29.9 mph N/A   Light Drizzle
5:35 AM 64.4 °F 62.6 °F 94% 30.03 in 10.0 mi NE 20.7 mph 28.8 mph N/A   Overcast
5:55 AM 64.9 °F 62.2 °F 91% 30.03 in 10.0 mi NE 20.7 mph 27.6 mph N/A   Light Drizzle
6:15 AM 64.9 °F 62.2 °F 91% 30.04 in 10.0 mi NE 18.4 mph 26.5 mph N/A Rain Light Rain
6:35 AM 64.4 °F 61.9 °F 92% 30.04 in 10.0 mi NE 17.3 mph 28.8 mph N/A   Overcast
6:55 AM 64.4 °F 60.8 °F 88% 30.05 in 10.0 mi NE 21.9 mph 29.9 mph N/A   Light Drizzle
7:15 AM 64.0 °F 60.1 °F 87% 30.06 in 10.0 mi ENE 21.9 mph 31.1 mph N/A   Drizzle
7:35 AM 63.7 °F 61.0 °F 91% 30.07 in 10.0 mi NE 15.0 mph 25.3 mph N/A Rain Light Rain
7:55 AM 62.6 °F 60.1 °F 91% 30.08 in 7.0 mi NE 19.6 mph 29.9 mph N/A Rain Light Rain
8:15 AM 62.6 °F 59.0 °F 88% 30.10 in 7.0 mi NE 21.9 mph 32.2 mph N/A Rain Light Rain
8:35 AM 62.6 °F 59.0 °F 88% 30.11 in 7.0 mi NE 19.6 mph 26.5 mph N/A Rain Light Rain
8:55 AM 62.6 °F 58.8 °F 87% 30.11 in 10.0 mi NE 23.0 mph 29.9 mph N/A Rain Light Rain
9:15 AM 62.6 °F 59.0 °F 88% 30.11 in 10.0 mi NE 18.4 mph 32.2 mph N/A Rain Light Rain
9:35 AM 63.1 °F 58.3 °F 84% 30.11 in 10.0 mi ENE 19.6 mph 28.8 mph N/A Rain Light Rain
9:55 AM 63.9 °F 58.1 °F 81% 30.11 in 10.0 mi ENE 21.9 mph 28.8 mph N/A   Overcast
10:15 AM 64.0 °F 58.5 °F 82% 30.11 in 10.0 mi ENE 19.6 mph 27.6 mph N/A   Overcast
10:35 AM 64.6 °F 57.2 °F 77% 30.12 in 10.0 mi NE 18.4 mph 26.5 mph N/A   Overcast
10:55 AM 64.4 °F 57.9 °F 79% 30.11 in 10.0 mi NE 20.7 mph 33.4 mph N/A   Light Drizzle
11:15 AM 64.6 °F 57.7 °F 78% 30.11 in 10.0 mi NE 18.4 mph 27.6 mph N/A   Light Drizzle
11:35 AM 65.3 °F 57.6 °F 76% 30.12 in 10.0 mi NE 19.6 mph 28.8 mph N/A   Overcast
11:55 AM 65.1 °F 57.9 °F 77% 30.12 in 10.0 mi NE 18.4 mph 26.5 mph N/A   Light Drizzle
12:15 PM 65.5 °F 57.6 °F 76% 30.12 in 10.0 mi NE 19.6 mph 27.6 mph N/A   Overcast
12:35 PM 65.3 °F 58.1 °F 77% 30.12 in 10.0 mi NE 16.1 mph 23.0 mph N/A   Light Drizzle
12:55 PM 64.9 °F 58.8 °F 81% 30.11 in 10.0 mi ENE 19.6 mph 26.5 mph N/A   Light Drizzle
1:15 PM 65.3 °F 59.4 °F 81% 30.11 in 10.0 mi ENE 16.1 mph 26.5 mph N/A   Light Drizzle
1:35 PM 64.9 °F 59.4 °F 82% 30.11 in 10.0 mi ENE 20.7 mph 25.3 mph N/A   Light Drizzle
1:55 PM 65.3 °F 59.7 °F 82% 30.10 in 10.0 mi NE 15.0 mph 27.6 mph N/A   Light Drizzle
2:15 PM 65.5 °F 59.9 °F 82% 30.10 in 10.0 mi NE 18.4 mph 24.2 mph N/A   Light Drizzle
2:35 PM 65.3 °F 59.9 °F 83% 30.10 in 10.0 mi NE 19.6 mph 28.8 mph N/A   Light Drizzle
2:55 PM 64.9 °F 60.3 °F 85% 30.10 in 10.0 mi ENE 16.1 mph 25.3 mph N/A   Light Drizzle
3:15 PM 64.8 °F 60.6 °F 86% 30.11 in 10.0 mi ENE 19.6 mph 26.5 mph N/A   Light Drizzle
3:35 PM 64.4 °F 60.6 °F 88% 30.11 in 10.0 mi NE 16.1 mph 24.2 mph N/A Rain Light Rain
3:55 PM 64.6 °F 60.6 °F 87% 30.10 in 10.0 mi NE 16.1 mph 23.0 mph N/A   Light Drizzle
4:15 PM 64.8 °F 60.6 °F 86% 30.11 in 10.0 mi NE 15.0 mph 24.2 mph N/A   Drizzle
4:35 PM 64.9 °F 60.8 °F 86% 30.11 in 10.0 mi NE 16.1 mph 23.0 mph N/A Rain Light Rain
4:55 PM 64.8 °F 60.8 °F 87% 30.10 in 7.0 mi NE 12.7 mph 23.0 mph N/A Rain Light Rain
5:15 PM 64.8 °F 61.3 °F 89% 30.10 in 7.0 mi NE 16.1 mph 23.0 mph N/A Rain Light Rain
5:35 PM 64.9 °F 61.7 °F 89% 30.10 in 7.0 mi ENE 17.3 mph 24.2 mph N/A Rain Light Rain
5:55 PM 64.8 °F 62.2 °F 92% 30.09 in 7.0 mi NE 18.4 mph 24.2 mph N/A Rain Light Rain
6:15 PM 64.9 °F 62.6 °F 92% 30.08 in 7.0 mi NE 13.8 mph 23.0 mph N/A Rain Light Rain
6:35 PM 65.3 °F 63.1 °F 93% 30.09 in 10.0 mi NE 16.1 mph 24.2 mph N/A Rain Light Rain
6:55 PM 65.3 °F 63.7 °F 94% 30.09 in 10.0 mi NE 18.4 mph 25.3 mph N/A Rain Light Rain
7:15 PM 65.7 °F 63.5 °F 93% 30.09 in 10.0 mi ENE 20.7 mph 24.2 mph N/A Rain Light Rain
7:35 PM 65.3 °F 62.6 °F 91% 30.09 in 10.0 mi NE 18.4 mph 26.5 mph N/A   Light Drizzle
7:55 PM 65.3 °F 61.9 °F 89% 30.10 in 10.0 mi NE 19.6 mph 32.2 mph N/A   Overcast
8:15 PM 65.3 °F 61.2 °F 86% 30.10 in 10.0 mi ENE 17.3 mph 27.6 mph N/A   Light Drizzle
8:35 PM 65.3 °F 60.6 °F 85% 30.10 in 10.0 mi NE 23.0 mph 32.2 mph N/A   Light Drizzle
8:55 PM 64.9 °F 60.3 °F 85% 30.11 in 10.0 mi ENE 19.6 mph 31.1 mph N/A Rain Light Rain
9:15 PM 64.6 °F 60.3 °F 86% 30.11 in 10.0 mi ENE 21.9 mph 31.1 mph N/A Rain Light Rain
9:35 PM 64.8 °F 60.1 °F 85% 30.12 in 10.0 mi ENE 23.0 mph 28.8 mph N/A   Overcast
9:55 PM 64.8 °F 60.8 °F 87% 30.12 in 10.0 mi NE 18.4 mph 28.8 mph N/A Rain Light Rain
10:15 PM 64.4 °F 60.3 °F 86% 30.12 in 10.0 mi ENE 23.0 mph 33.4 mph N/A   Light Drizzle
10:35 PM 64.0 °F 59.4 °F 85% 30.12 in 10.0 mi NE 19.6 mph 29.9 mph N/A Rain Light Rain
10:55 PM 64.4 °F 59.5 °F 84% 30.11 in 10.0 mi NE 20.7 mph 27.6 mph N/A   Light Drizzle
11:15 PM 63.9 °F 59.4 °F 85% 30.11 in 10.0 mi ENE 19.6 mph 32.2 mph N/A Rain Light Rain
11:35 PM 64.0 °F 60.1 °F 87% 30.11 in 10.0 mi NE 16.1 mph 24.2 mph N/A   Light Drizzle
11:55 PM 64.0 °F 60.8 °F 89% 30.10 in 10.0 mi NE 19.6 mph 26.5 mph N/A   Overcast